sensor_id;sensor_type;location;lat;lon;timestamp;P1;durP1;ratioP1;P2;durP2;ratioP2
20411;SDS011;10365;52.578;8.138;2023-08-31T00:02:04;19.75;;;7.30;;
20411;SDS011;10365;52.578;8.138;2023-08-31T00:04:30;14.23;;;7.45;;
20411;SDS011;10365;52.578;8.138;2023-08-31T00:06:55;15.07;;;7.35;;
20411;SDS011;10365;52.578;8.138;2023-08-31T00:09:22;16.30;;;8.02;;
20411;SDS011;10365;52.578;8.138;2023-08-31T00:11:49;17.98;;;7.75;;
20411;SDS011;10365;52.578;8.138;2023-08-31T00:14:15;17.35;;;7.75;;
20411;SDS011;10365;52.578;8.138;2023-08-31T00:16:40;16.52;;;7.63;;
20411;SDS011;10365;52.578;8.138;2023-08-31T00:19:06;15.27;;;7.72;;
20411;SDS011;10365;52.578;8.138;2023-08-31T00:21:31;15.05;;;7.90;;
20411;SDS011;10365;52.578;8.138;2023-08-31T00:23:56;14.45;;;8.40;;
20411;SDS011;10365;52.578;8.138;2023-08-31T00:26:22;14.80;;;8.27;;
20411;SDS011;10365;52.578;8.138;2023-08-31T00:28:48;12.50;;;7.40;;
20411;SDS011;10365;52.578;8.138;2023-08-31T00:31:15;12.70;;;7.70;;
20411;SDS011;10365;52.578;8.138;2023-08-31T00:33:40;18.45;;;8.95;;
20411;SDS011;10365;52.578;8.138;2023-08-31T00:36:06;21.92;;;8.43;;
20411;SDS011;10365;52.578;8.138;2023-08-31T00:38:31;15.43;;;8.02;;
20411;SDS011;10365;52.578;8.138;2023-08-31T00:40:57;15.63;;;8.07;;
20411;SDS011;10365;52.578;8.138;2023-08-31T00:43:22;12.15;;;7.18;;
20411;SDS011;10365;52.578;8.138;2023-08-31T00:45:48;12.98;;;8.32;;
20411;SDS011;10365;52.578;8.138;2023-08-31T00:48:15;17.10;;;8.02;;
20411;SDS011;10365;52.578;8.138;2023-08-31T00:50:42;15.30;;;8.13;;
20411;SDS011;10365;52.578;8.138;2023-08-31T00:53:07;19.48;;;7.72;;
20411;SDS011;10365;52.578;8.138;2023-08-31T00:55:33;15.77;;;7.97;;
20411;SDS011;10365;52.578;8.138;2023-08-31T00:57:59;14.55;;;8.25;;
20411;SDS011;10365;52.578;8.138;2023-08-31T01:00:26;15.38;;;7.93;;
20411;SDS011;10365;52.578;8.138;2023-08-31T01:05:31;16.48;;;8.50;;
20411;SDS011;10365;52.578;8.138;2023-08-31T01:08:22;13.68;;;7.45;;
20411;SDS011;10365;52.578;8.138;2023-08-31T01:10:51;14.13;;;7.90;;
20411;SDS011;10365;52.578;8.138;2023-08-31T01:13:21;18.00;;;8.13;;
20411;SDS011;10365;52.578;8.138;2023-08-31T01:15:53;17.90;;;8.73;;
20411;SDS011;10365;52.578;8.138;2023-08-31T01:18:20;19.02;;;9.13;;
20411;SDS011;10365;52.578;8.138;2023-08-31T01:23:21;22.05;;;9.20;;
20411;SDS011;10365;52.578;8.138;2023-08-31T01:25:47;21.73;;;8.57;;
20411;SDS011;10365;52.578;8.138;2023-08-31T01:28:13;17.48;;;9.57;;
20411;SDS011;10365;52.578;8.138;2023-08-31T01:30:39;16.42;;;8.85;;
20411;SDS011;10365;52.578;8.138;2023-08-31T01:33:05;17.70;;;8.43;;
20411;SDS011;10365;52.578;8.138;2023-08-31T01:35:33;16.33;;;8.45;;
20411;SDS011;10365;52.578;8.138;2023-08-31T01:38:02;18.52;;;8.93;;
20411;SDS011;10365;52.578;8.138;2023-08-31T01:40:34;20.52;;;8.98;;
20411;SDS011;10365;52.578;8.138;2023-08-31T01:43:01;13.55;;;8.57;;
20411;SDS011;10365;52.578;8.138;2023-08-31T01:45:26;18.42;;;8.45;;
20411;SDS011;10365;52.578;8.138;2023-08-31T01:47:52;16.00;;;8.52;;
20411;SDS011;10365;52.578;8.138;2023-08-31T01:50:17;13.38;;;7.88;;
20411;SDS011;10365;52.578;8.138;2023-08-31T01:52:43;13.15;;;8.05;;
20411;SDS011;10365;52.578;8.138;2023-08-31T01:55:08;20.73;;;8.73;;
20411;SDS011;10365;52.578;8.138;2023-08-31T01:57:34;14.55;;;7.57;;
20411;SDS011;10365;52.578;8.138;2023-08-31T02:00:09;16.75;;;8.13;;
20411;SDS011;10365;52.578;8.138;2023-08-31T02:02:41;17.65;;;7.90;;
20411;SDS011;10365;52.578;8.138;2023-08-31T02:05:07;16.52;;;9.00;;
20411;SDS011;10365;52.578;8.138;2023-08-31T02:07:33;18.40;;;7.93;;
20411;SDS011;10365;52.578;8.138;2023-08-31T02:09:58;20.02;;;7.97;;
20411;SDS011;10365;52.578;8.138;2023-08-31T02:12:23;12.68;;;7.32;;
20411;SDS011;10365;52.578;8.138;2023-08-31T02:14:49;14.23;;;7.78;;
20411;SDS011;10365;52.578;8.138;2023-08-31T02:17:14;19.13;;;8.18;;
20411;SDS011;10365;52.578;8.138;2023-08-31T02:19:40;11.85;;;7.32;;
20411;SDS011;10365;52.578;8.138;2023-08-31T02:22:05;15.23;;;8.18;;
20411;SDS011;10365;52.578;8.138;2023-08-31T02:24:30;17.20;;;7.28;;
20411;SDS011;10365;52.578;8.138;2023-08-31T02:26:56;20.20;;;7.82;;
20411;SDS011;10365;52.578;8.138;2023-08-31T02:29:24;16.98;;;7.13;;
20411;SDS011;10365;52.578;8.138;2023-08-31T02:31:50;19.98;;;8.30;;
20411;SDS011;10365;52.578;8.138;2023-08-31T02:34:15;16.27;;;8.82;;
20411;SDS011;10365;52.578;8.138;2023-08-31T02:36:40;16.63;;;8.10;;
20411;SDS011;10365;52.578;8.138;2023-08-31T02:39:06;16.38;;;8.45;;
20411;SDS011;10365;52.578;8.138;2023-08-31T02:41:31;14.85;;;7.93;;
20411;SDS011;10365;52.578;8.138;2023-08-31T02:43:57;15.52;;;8.07;;
20411;SDS011;10365;52.578;8.138;2023-08-31T02:46:22;16.80;;;7.72;;
20411;SDS011;10365;52.578;8.138;2023-08-31T02:48:48;23.02;;;8.27;;
20411;SDS011;10365;52.578;8.138;2023-08-31T02:51:14;17.17;;;7.75;;
20411;SDS011;10365;52.578;8.138;2023-08-31T02:53:39;21.48;;;8.02;;
20411;SDS011;10365;52.578;8.138;2023-08-31T02:56:04;19.23;;;8.93;;
20411;SDS011;10365;52.578;8.138;2023-08-31T02:58:30;18.92;;;8.32;;
20411;SDS011;10365;52.578;8.138;2023-08-31T03:01:07;18.85;;;7.70;;
20411;SDS011;10365;52.578;8.138;2023-08-31T03:03:33;18.27;;;8.45;;
20411;SDS011;10365;52.578;8.138;2023-08-31T03:06:00;23.38;;;9.43;;
20411;SDS011;10365;52.578;8.138;2023-08-31T03:08:25;20.92;;;9.45;;
20411;SDS011;10365;52.578;8.138;2023-08-31T03:10:50;20.58;;;9.07;;
20411;SDS011;10365;52.578;8.138;2023-08-31T03:13:16;23.15;;;9.60;;
20411;SDS011;10365;52.578;8.138;2023-08-31T03:15:41;19.20;;;8.98;;
20411;SDS011;10365;52.578;8.138;2023-08-31T03:18:06;18.42;;;9.65;;
20411;SDS011;10365;52.578;8.138;2023-08-31T03:20:32;20.73;;;9.13;;
20411;SDS011;10365;52.578;8.138;2023-08-31T03:22:58;19.75;;;10.05;;
20411;SDS011;10365;52.578;8.138;2023-08-31T03:25:23;16.98;;;9.68;;
20411;SDS011;10365;52.578;8.138;2023-08-31T03:27:49;22.35;;;9.50;;
20411;SDS011;10365;52.578;8.138;2023-08-31T03:30:14;20.08;;;10.07;;
20411;SDS011;10365;52.578;8.138;2023-08-31T03:32:40;21.02;;;9.75;;
20411;SDS011;10365;52.578;8.138;2023-08-31T03:35:06;19.58;;;10.07;;
20411;SDS011;10365;52.578;8.138;2023-08-31T03:37:32;23.33;;;11.25;;
20411;SDS011;10365;52.578;8.138;2023-08-31T03:39:58;22.35;;;9.98;;
20411;SDS011;10365;52.578;8.138;2023-08-31T03:42:24;25.33;;;10.63;;
20411;SDS011;10365;52.578;8.138;2023-08-31T03:44:49;26.15;;;9.85;;
20411;SDS011;10365;52.578;8.138;2023-08-31T03:47:16;22.08;;;9.90;;
20411;SDS011;10365;52.578;8.138;2023-08-31T03:49:41;20.45;;;10.38;;
20411;SDS011;10365;52.578;8.138;2023-08-31T03:52:06;21.90;;;10.35;;
20411;SDS011;10365;52.578;8.138;2023-08-31T03:54:32;25.60;;;10.63;;
20411;SDS011;10365;52.578;8.138;2023-08-31T03:56:57;21.90;;;11.00;;
20411;SDS011;10365;52.578;8.138;2023-08-31T03:59:23;23.05;;;11.23;;
20411;SDS011;10365;52.578;8.138;2023-08-31T04:01:48;23.20;;;11.60;;
20411;SDS011;10365;52.578;8.138;2023-08-31T04:04:14;24.98;;;11.80;;
20411;SDS011;10365;52.578;8.138;2023-08-31T04:06:39;26.75;;;12.15;;
20411;SDS011;10365;52.578;8.138;2023-08-31T04:09:05;30.92;;;11.90;;
20411;SDS011;10365;52.578;8.138;2023-08-31T04:11:32;23.83;;;12.18;;
20411;SDS011;10365;52.578;8.138;2023-08-31T04:13:57;22.85;;;12.32;;
20411;SDS011;10365;52.578;8.138;2023-08-31T04:16:23;23.05;;;11.98;;
20411;SDS011;10365;52.578;8.138;2023-08-31T04:18:48;20.52;;;11.90;;
20411;SDS011;10365;52.578;8.138;2023-08-31T04:21:16;23.48;;;12.02;;
20411;SDS011;10365;52.578;8.138;2023-08-31T04:23:42;18.80;;;11.88;;
20411;SDS011;10365;52.578;8.138;2023-08-31T04:26:11;26.77;;;11.82;;
20411;SDS011;10365;52.578;8.138;2023-08-31T04:28:37;23.65;;;12.82;;
20411;SDS011;10365;52.578;8.138;2023-08-31T04:31:04;30.15;;;13.65;;
20411;SDS011;10365;52.578;8.138;2023-08-31T04:33:29;24.02;;;13.50;;
20411;SDS011;10365;52.578;8.138;2023-08-31T04:35:55;26.30;;;13.00;;
20411;SDS011;10365;52.578;8.138;2023-08-31T04:38:20;25.63;;;14.20;;
20411;SDS011;10365;52.578;8.138;2023-08-31T04:40:45;25.13;;;13.50;;
20411;SDS011;10365;52.578;8.138;2023-08-31T04:43:11;28.55;;;15.13;;
20411;SDS011;10365;52.578;8.138;2023-08-31T04:45:36;26.35;;;14.63;;
20411;SDS011;10365;52.578;8.138;2023-08-31T04:48:01;20.33;;;13.48;;
20411;SDS011;10365;52.578;8.138;2023-08-31T04:50:28;25.10;;;14.20;;
20411;SDS011;10365;52.578;8.138;2023-08-31T04:52:54;31.98;;;15.02;;
20411;SDS011;10365;52.578;8.138;2023-08-31T04:55:20;27.83;;;15.45;;
20411;SDS011;10365;52.578;8.138;2023-08-31T04:57:46;26.05;;;14.65;;
20411;SDS011;10365;52.578;8.138;2023-08-31T05:00:11;27.05;;;15.13;;
20411;SDS011;10365;52.578;8.138;2023-08-31T05:02:37;29.33;;;15.65;;
20411;SDS011;10365;52.578;8.138;2023-08-31T05:05:02;23.27;;;14.05;;
20411;SDS011;10365;52.578;8.138;2023-08-31T05:07:28;27.88;;;15.00;;
20411;SDS011;10365;52.578;8.138;2023-08-31T05:09:53;27.13;;;14.77;;
20411;SDS011;10365;52.578;8.138;2023-08-31T05:12:19;26.77;;;14.85;;
20411;SDS011;10365;52.578;8.138;2023-08-31T05:14:44;27.38;;;14.57;;
20411;SDS011;10365;52.578;8.138;2023-08-31T05:17:09;25.40;;;15.98;;
20411;SDS011;10365;52.578;8.138;2023-08-31T05:19:35;34.03;;;16.05;;
20411;SDS011;10365;52.578;8.138;2023-08-31T05:22:00;30.80;;;17.00;;
20411;SDS011;10365;52.578;8.138;2023-08-31T05:24:26;31.20;;;16.95;;
20411;SDS011;10365;52.578;8.138;2023-08-31T05:26:51;27.13;;;16.35;;
20411;SDS011;10365;52.578;8.138;2023-08-31T05:29:17;30.35;;;16.73;;
20411;SDS011;10365;52.578;8.138;2023-08-31T05:31:42;27.38;;;17.50;;
20411;SDS011;10365;52.578;8.138;2023-08-31T05:34:09;27.38;;;16.85;;
20411;SDS011;10365;52.578;8.138;2023-08-31T05:36:35;31.05;;;16.55;;
20411;SDS011;10365;52.578;8.138;2023-08-31T05:39:00;27.50;;;16.27;;
20411;SDS011;10365;52.578;8.138;2023-08-31T05:41:25;27.15;;;17.58;;
20411;SDS011;10365;52.578;8.138;2023-08-31T05:43:52;28.15;;;17.67;;
20411;SDS011;10365;52.578;8.138;2023-08-31T05:46:17;31.45;;;16.90;;
20411;SDS011;10365;52.578;8.138;2023-08-31T05:48:42;30.48;;;18.45;;
20411;SDS011;10365;52.578;8.138;2023-08-31T05:51:08;28.95;;;18.23;;
20411;SDS011;10365;52.578;8.138;2023-08-31T05:53:33;23.02;;;16.83;;
20411;SDS011;10365;52.578;8.138;2023-08-31T05:55:58;26.25;;;16.48;;
20411;SDS011;10365;52.578;8.138;2023-08-31T05:58:31;25.00;;;16.05;;
20411;SDS011;10365;52.578;8.138;2023-08-31T06:00:57;22.95;;;16.35;;
20411;SDS011;10365;52.578;8.138;2023-08-31T06:03:22;25.35;;;16.42;;
20411;SDS011;10365;52.578;8.138;2023-08-31T06:05:47;22.17;;;15.30;;
20411;SDS011;10365;52.578;8.138;2023-08-31T06:08:13;21.92;;;15.02;;
20411;SDS011;10365;52.578;8.138;2023-08-31T06:10:38;22.50;;;15.02;;
20411;SDS011;10365;52.578;8.138;2023-08-31T06:13:04;22.40;;;15.63;;
20411;SDS011;10365;52.578;8.138;2023-08-31T06:15:29;21.40;;;15.32;;
20411;SDS011;10365;52.578;8.138;2023-08-31T06:17:54;20.85;;;14.68;;
20411;SDS011;10365;52.578;8.138;2023-08-31T06:20:20;22.05;;;14.95;;
20411;SDS011;10365;52.578;8.138;2023-08-31T06:22:45;21.60;;;15.52;;
20411;SDS011;10365;52.578;8.138;2023-08-31T06:25:10;23.67;;;16.35;;
20411;SDS011;10365;52.578;8.138;2023-08-31T06:27:36;24.20;;;15.10;;
20411;SDS011;10365;52.578;8.138;2023-08-31T06:30:02;21.85;;;15.38;;
20411;SDS011;10365;52.578;8.138;2023-08-31T06:32:28;21.90;;;14.65;;
20411;SDS011;10365;52.578;8.138;2023-08-31T06:34:53;20.52;;;15.82;;
20411;SDS011;10365;52.578;8.138;2023-08-31T06:37:18;17.95;;;14.25;;
20411;SDS011;10365;52.578;8.138;2023-08-31T06:39:45;19.10;;;14.82;;
20411;SDS011;10365;52.578;8.138;2023-08-31T06:42:10;20.08;;;13.02;;
20411;SDS011;10365;52.578;8.138;2023-08-31T06:44:37;16.40;;;12.48;;
20411;SDS011;10365;52.578;8.138;2023-08-31T06:47:02;15.52;;;11.88;;
20411;SDS011;10365;52.578;8.138;2023-08-31T06:49:28;14.77;;;11.15;;
20411;SDS011;10365;52.578;8.138;2023-08-31T06:51:55;17.20;;;12.52;;
20411;SDS011;10365;52.578;8.138;2023-08-31T06:54:20;16.08;;;11.05;;
20411;SDS011;10365;52.578;8.138;2023-08-31T06:56:47;16.17;;;10.55;;
20411;SDS011;10365;52.578;8.138;2023-08-31T06:59:12;15.65;;;10.52;;
20411;SDS011;10365;52.578;8.138;2023-08-31T07:01:37;11.30;;;8.30;;
20411;SDS011;10365;52.578;8.138;2023-08-31T07:04:03;15.73;;;8.75;;
20411;SDS011;10365;52.578;8.138;2023-08-31T07:06:29;11.98;;;7.90;;
20411;SDS011;10365;52.578;8.138;2023-08-31T07:08:54;9.82;;;8.07;;
20411;SDS011;10365;52.578;8.138;2023-08-31T07:11:20;14.02;;;8.15;;
20411;SDS011;10365;52.578;8.138;2023-08-31T07:13:45;11.35;;;7.72;;
20411;SDS011;10365;52.578;8.138;2023-08-31T07:16:10;15.02;;;7.93;;
20411;SDS011;10365;52.578;8.138;2023-08-31T07:18:36;13.55;;;7.65;;
20411;SDS011;10365;52.578;8.138;2023-08-31T07:21:02;16.75;;;7.40;;
20411;SDS011;10365;52.578;8.138;2023-08-31T07:23:27;11.50;;;8.45;;
20411;SDS011;10365;52.578;8.138;2023-08-31T07:25:56;10.82;;;7.43;;
20411;SDS011;10365;52.578;8.138;2023-08-31T07:28:22;8.60;;;6.80;;
20411;SDS011;10365;52.578;8.138;2023-08-31T07:30:48;10.40;;;7.28;;
20411;SDS011;10365;52.578;8.138;2023-08-31T07:33:13;10.50;;;7.13;;
20411;SDS011;10365;52.578;8.138;2023-08-31T07:35:38;12.30;;;7.28;;
20411;SDS011;10365;52.578;8.138;2023-08-31T07:38:04;12.15;;;7.03;;
20411;SDS011;10365;52.578;8.138;2023-08-31T07:40:29;7.93;;;6.22;;
20411;SDS011;10365;52.578;8.138;2023-08-31T07:42:55;9.52;;;6.15;;
20411;SDS011;10365;52.578;8.138;2023-08-31T07:45:20;7.22;;;5.90;;
20411;SDS011;10365;52.578;8.138;2023-08-31T07:47:45;11.00;;;6.25;;
20411;SDS011;10365;52.578;8.138;2023-08-31T07:50:11;10.27;;;5.38;;
20411;SDS011;10365;52.578;8.138;2023-08-31T07:52:37;10.70;;;5.45;;
20411;SDS011;10365;52.578;8.138;2023-08-31T07:55:03;8.15;;;5.32;;
20411;SDS011;10365;52.578;8.138;2023-08-31T07:57:29;7.78;;;5.47;;
20411;SDS011;10365;52.578;8.138;2023-08-31T07:59:54;9.65;;;5.28;;
20411;SDS011;10365;52.578;8.138;2023-08-31T08:02:19;9.05;;;5.25;;
20411;SDS011;10365;52.578;8.138;2023-08-31T08:04:45;10.63;;;5.30;;
20411;SDS011;10365;52.578;8.138;2023-08-31T08:07:11;7.95;;;5.72;;
20411;SDS011;10365;52.578;8.138;2023-08-31T08:09:36;7.43;;;5.15;;
20411;SDS011;10365;52.578;8.138;2023-08-31T08:12:01;6.43;;;5.07;;
20411;SDS011;10365;52.578;8.138;2023-08-31T08:14:28;9.13;;;4.78;;
20411;SDS011;10365;52.578;8.138;2023-08-31T08:16:53;7.40;;;4.78;;
20411;SDS011;10365;52.578;8.138;2023-08-31T08:19:24;8.63;;;4.70;;
20411;SDS011;10365;52.578;8.138;2023-08-31T08:21:52;8.85;;;4.72;;
20411;SDS011;10365;52.578;8.138;2023-08-31T08:24:17;6.15;;;4.55;;
20411;SDS011;10365;52.578;8.138;2023-08-31T08:26:43;6.93;;;4.47;;
20411;SDS011;10365;52.578;8.138;2023-08-31T08:29:08;7.00;;;3.95;;
20411;SDS011;10365;52.578;8.138;2023-08-31T08:31:34;5.70;;;3.70;;
20411;SDS011;10365;52.578;8.138;2023-08-31T08:34:00;7.47;;;3.58;;
20411;SDS011;10365;52.578;8.138;2023-08-31T08:36:25;10.93;;;4.25;;
20411;SDS011;10365;52.578;8.138;2023-08-31T08:38:51;8.48;;;3.97;;
20411;SDS011;10365;52.578;8.138;2023-08-31T08:41:17;5.72;;;3.55;;
20411;SDS011;10365;52.578;8.138;2023-08-31T08:43:46;5.68;;;3.28;;
20411;SDS011;10365;52.578;8.138;2023-08-31T08:46:12;5.65;;;3.40;;
20411;SDS011;10365;52.578;8.138;2023-08-31T08:48:38;7.50;;;3.70;;
20411;SDS011;10365;52.578;8.138;2023-08-31T08:51:04;5.88;;;3.55;;
20411;SDS011;10365;52.578;8.138;2023-08-31T08:53:29;7.30;;;3.55;;
20411;SDS011;10365;52.578;8.138;2023-08-31T08:55:55;7.13;;;3.20;;
20411;SDS011;10365;52.578;8.138;2023-08-31T08:58:21;6.15;;;3.13;;
20411;SDS011;10365;52.578;8.138;2023-08-31T09:00:47;6.88;;;3.20;;
20411;SDS011;10365;52.578;8.138;2023-08-31T09:03:13;7.05;;;2.90;;
20411;SDS011;10365;52.578;8.138;2023-08-31T09:05:38;5.55;;;3.00;;
20411;SDS011;10365;52.578;8.138;2023-08-31T09:10:33;7.03;;;3.13;;
20411;SDS011;10365;52.578;8.138;2023-08-31T09:12:59;6.82;;;2.80;;
20411;SDS011;10365;52.578;8.138;2023-08-31T09:15:24;6.57;;;3.30;;
20411;SDS011;10365;52.578;8.138;2023-08-31T09:17:51;4.72;;;2.58;;
20411;SDS011;10365;52.578;8.138;2023-08-31T09:20:16;4.88;;;2.28;;
20411;SDS011;10365;52.578;8.138;2023-08-31T09:22:42;5.82;;;2.00;;
20411;SDS011;10365;52.578;8.138;2023-08-31T09:25:09;4.65;;;2.70;;
20411;SDS011;10365;52.578;8.138;2023-08-31T09:27:36;4.65;;;2.42;;
20411;SDS011;10365;52.578;8.138;2023-08-31T09:30:04;6.07;;;2.88;;
20411;SDS011;10365;52.578;8.138;2023-08-31T09:32:29;5.85;;;2.55;;
20411;SDS011;10365;52.578;8.138;2023-08-31T09:34:55;5.82;;;2.67;;
20411;SDS011;10365;52.578;8.138;2023-08-31T09:37:20;4.15;;;2.63;;
20411;SDS011;10365;52.578;8.138;2023-08-31T09:39:45;6.43;;;2.47;;
20411;SDS011;10365;52.578;8.138;2023-08-31T09:42:11;6.20;;;1.95;;
20411;SDS011;10365;52.578;8.138;2023-08-31T09:44:39;7.35;;;2.38;;
20411;SDS011;10365;52.578;8.138;2023-08-31T09:47:05;2.45;;;1.70;;
20411;SDS011;10365;52.578;8.138;2023-08-31T09:49:30;3.63;;;1.70;;
20411;SDS011;10365;52.578;8.138;2023-08-31T09:51:56;5.97;;;2.13;;
20411;SDS011;10365;52.578;8.138;2023-08-31T09:54:23;6.53;;;1.92;;
20411;SDS011;10365;52.578;8.138;2023-08-31T09:56:51;2.00;;;1.45;;
20411;SDS011;10365;52.578;8.138;2023-08-31T09:59:18;5.72;;;1.95;;
20411;SDS011;10365;52.578;8.138;2023-08-31T10:01:46;3.50;;;1.70;;
20411;SDS011;10365;52.578;8.138;2023-08-31T10:04:12;4.55;;;2.00;;
20411;SDS011;10365;52.578;8.138;2023-08-31T10:06:41;3.55;;;2.38;;
20411;SDS011;10365;52.578;8.138;2023-08-31T10:09:07;3.92;;;1.60;;
20411;SDS011;10365;52.578;8.138;2023-08-31T10:11:37;5.00;;;1.70;;
20411;SDS011;10365;52.578;8.138;2023-08-31T10:14:03;3.75;;;1.55;;
20411;SDS011;10365;52.578;8.138;2023-08-31T10:16:29;4.75;;;1.70;;
20411;SDS011;10365;52.578;8.138;2023-08-31T10:18:55;4.70;;;1.88;;
20411;SDS011;10365;52.578;8.138;2023-08-31T10:21:20;5.18;;;1.88;;
20411;SDS011;10365;52.578;8.138;2023-08-31T10:23:47;2.85;;;1.35;;
20411;SDS011;10365;52.578;8.138;2023-08-31T10:26:12;4.60;;;1.55;;
20411;SDS011;10365;52.578;8.138;2023-08-31T10:28:47;5.85;;;2.15;;
20411;SDS011;10365;52.578;8.138;2023-08-31T10:31:16;4.25;;;2.13;;
20411;SDS011;10365;52.578;8.138;2023-08-31T10:38:36;5.95;;;1.20;;
20411;SDS011;10365;52.578;8.138;2023-08-31T10:41:03;3.95;;;1.33;;
20411;SDS011;10365;52.578;8.138;2023-08-31T10:43:54;5.47;;;1.13;;
20411;SDS011;10365;52.578;8.138;2023-08-31T10:48:55;3.97;;;1.40;;
20411;SDS011;10365;52.578;8.138;2023-08-31T10:51:21;3.40;;;1.15;;
20411;SDS011;10365;52.578;8.138;2023-08-31T10:53:46;3.53;;;0.95;;
20411;SDS011;10365;52.578;8.138;2023-08-31T10:56:12;4.72;;;0.98;;
20411;SDS011;10365;52.578;8.138;2023-08-31T10:58:37;4.07;;;1.10;;
20411;SDS011;10365;52.578;8.138;2023-08-31T11:01:03;2.67;;;1.25;;
20411;SDS011;10365;52.578;8.138;2023-08-31T11:03:32;4.07;;;1.33;;
20411;SDS011;10365;52.578;8.138;2023-08-31T11:05:57;4.20;;;1.10;;
20411;SDS011;10365;52.578;8.138;2023-08-31T11:08:25;4.45;;;1.60;;
20411;SDS011;10365;52.578;8.138;2023-08-31T11:10:52;5.93;;;1.27;;
20411;SDS011;10365;52.578;8.138;2023-08-31T11:13:20;4.00;;;1.60;;
20411;SDS011;10365;52.578;8.138;2023-08-31T11:15:47;1.20;;;0.90;;
20411;SDS011;10365;52.578;8.138;2023-08-31T11:18:13;1.75;;;0.80;;
20411;SDS011;10365;52.578;8.138;2023-08-31T11:20:43;1.90;;;0.82;;
20411;SDS011;10365;52.578;8.138;2023-08-31T11:23:09;2.47;;;0.90;;
20411;SDS011;10365;52.578;8.138;2023-08-31T11:25:34;1.70;;;0.80;;
20411;SDS011;10365;52.578;8.138;2023-08-31T11:28:01;1.55;;;0.50;;
20411;SDS011;10365;52.578;8.138;2023-08-31T11:30:27;2.30;;;0.68;;
20411;SDS011;10365;52.578;8.138;2023-08-31T11:32:53;1.35;;;0.57;;
20411;SDS011;10365;52.578;8.138;2023-08-31T11:35:19;1.35;;;0.50;;
20411;SDS011;10365;52.578;8.138;2023-08-31T11:37:45;2.15;;;0.40;;
20411;SDS011;10365;52.578;8.138;2023-08-31T11:40:11;1.60;;;0.50;;
20411;SDS011;10365;52.578;8.138;2023-08-31T11:42:36;4.28;;;0.60;;
20411;SDS011;10365;52.578;8.138;2023-08-31T11:45:02;2.22;;;0.55;;
20411;SDS011;10365;52.578;8.138;2023-08-31T11:47:30;1.20;;;0.40;;
20411;SDS011;10365;52.578;8.138;2023-08-31T11:49:55;1.23;;;0.50;;
20411;SDS011;10365;52.578;8.138;2023-08-31T11:52:21;2.78;;;0.55;;
20411;SDS011;10365;52.578;8.138;2023-08-31T11:54:46;1.13;;;0.47;;
20411;SDS011;10365;52.578;8.138;2023-08-31T11:57:16;1.85;;;0.60;;
20411;SDS011;10365;52.578;8.138;2023-08-31T11:59:42;1.67;;;0.60;;
20411;SDS011;10365;52.578;8.138;2023-08-31T12:02:08;3.72;;;0.60;;
20411;SDS011;10365;52.578;8.138;2023-08-31T12:04:44;2.13;;;0.60;;
20411;SDS011;10365;52.578;8.138;2023-08-31T12:07:09;3.65;;;0.60;;
20411;SDS011;10365;52.578;8.138;2023-08-31T12:09:35;4.20;;;0.70;;
20411;SDS011;10365;52.578;8.138;2023-08-31T12:12:00;5.53;;;1.05;;
20411;SDS011;10365;52.578;8.138;2023-08-31T12:14:26;2.00;;;0.73;;
20411;SDS011;10365;52.578;8.138;2023-08-31T12:16:53;2.58;;;0.75;;
20411;SDS011;10365;52.578;8.138;2023-08-31T12:19:18;6.85;;;0.93;;
20411;SDS011;10365;52.578;8.138;2023-08-31T12:21:44;1.70;;;0.60;;
20411;SDS011;10365;52.578;8.138;2023-08-31T12:24:10;4.20;;;1.05;;
20411;SDS011;10365;52.578;8.138;2023-08-31T12:26:36;2.05;;;0.90;;
20411;SDS011;10365;52.578;8.138;2023-08-31T12:29:04;2.80;;;0.85;;
20411;SDS011;10365;52.578;8.138;2023-08-31T12:31:30;2.90;;;1.13;;
20411;SDS011;10365;52.578;8.138;2023-08-31T12:33:55;1.60;;;1.10;;
20411;SDS011;10365;52.578;8.138;2023-08-31T12:36:20;3.67;;;1.45;;
20411;SDS011;10365;52.578;8.138;2023-08-31T12:38:46;2.50;;;0.93;;
20411;SDS011;10365;52.578;8.138;2023-08-31T12:41:11;4.93;;;1.10;;
20411;SDS011;10365;52.578;8.138;2023-08-31T12:43:37;3.58;;;0.85;;
20411;SDS011;10365;52.578;8.138;2023-08-31T12:46:03;2.30;;;0.95;;
20411;SDS011;10365;52.578;8.138;2023-08-31T12:48:31;3.78;;;0.90;;
20411;SDS011;10365;52.578;8.138;2023-08-31T12:50:56;3.90;;;1.00;;
20411;SDS011;10365;52.578;8.138;2023-08-31T12:53:22;3.92;;;1.17;;
20411;SDS011;10365;52.578;8.138;2023-08-31T12:55:48;4.50;;;0.68;;
20411;SDS011;10365;52.578;8.138;2023-08-31T12:58:15;2.47;;;0.80;;
20411;SDS011;10365;52.578;8.138;2023-08-31T13:00:40;2.72;;;0.77;;
20411;SDS011;10365;52.578;8.138;2023-08-31T13:03:08;2.85;;;0.60;;
20411;SDS011;10365;52.578;8.138;2023-08-31T13:05:33;1.52;;;0.70;;
20411;SDS011;10365;52.578;8.138;2023-08-31T13:07:59;3.22;;;1.05;;
20411;SDS011;10365;52.578;8.138;2023-08-31T13:10:24;5.40;;;0.75;;
20411;SDS011;10365;52.578;8.138;2023-08-31T13:12:49;2.88;;;0.70;;
20411;SDS011;10365;52.578;8.138;2023-08-31T13:15:15;3.75;;;0.88;;
20411;SDS011;10365;52.578;8.138;2023-08-31T13:17:40;1.25;;;0.50;;
20411;SDS011;10365;52.578;8.138;2023-08-31T13:20:06;1.45;;;0.55;;
20411;SDS011;10365;52.578;8.138;2023-08-31T13:22:33;3.13;;;0.52;;
20411;SDS011;10365;52.578;8.138;2023-08-31T13:24:59;1.65;;;0.40;;
20411;SDS011;10365;52.578;8.138;2023-08-31T13:27:24;1.33;;;0.35;;
20411;SDS011;10365;52.578;8.138;2023-08-31T13:29:50;3.40;;;0.63;;
20411;SDS011;10365;52.578;8.138;2023-08-31T13:32:15;1.80;;;0.60;;
20411;SDS011;10365;52.578;8.138;2023-08-31T13:34:41;3.60;;;0.50;;
20411;SDS011;10365;52.578;8.138;2023-08-31T13:37:09;2.97;;;0.50;;
20411;SDS011;10365;52.578;8.138;2023-08-31T13:39:37;2.42;;;0.50;;
20411;SDS011;10365;52.578;8.138;2023-08-31T13:42:02;1.48;;;0.40;;
20411;SDS011;10365;52.578;8.138;2023-08-31T13:44:29;3.25;;;0.50;;
20411;SDS011;10365;52.578;8.138;2023-08-31T13:46:54;2.50;;;0.52;;
20411;SDS011;10365;52.578;8.138;2023-08-31T13:49:19;2.53;;;0.60;;
20411;SDS011;10365;52.578;8.138;2023-08-31T13:51:45;1.65;;;0.40;;
20411;SDS011;10365;52.578;8.138;2023-08-31T13:54:10;2.50;;;0.70;;
20411;SDS011;10365;52.578;8.138;2023-08-31T13:56:36;5.70;;;1.00;;
20411;SDS011;10365;52.578;8.138;2023-08-31T13:59:02;3.55;;;1.00;;
20411;SDS011;10365;52.578;8.138;2023-08-31T14:01:27;6.43;;;1.00;;
20411;SDS011;10365;52.578;8.138;2023-08-31T14:03:53;2.58;;;0.60;;
20411;SDS011;10365;52.578;8.138;2023-08-31T14:06:18;4.50;;;0.75;;
20411;SDS011;10365;52.578;8.138;2023-08-31T14:08:44;4.47;;;0.80;;
20411;SDS011;10365;52.578;8.138;2023-08-31T14:11:09;3.40;;;1.00;;
20411;SDS011;10365;52.578;8.138;2023-08-31T14:13:34;1.67;;;0.75;;
20411;SDS011;10365;52.578;8.138;2023-08-31T14:16:00;2.83;;;1.02;;
20411;SDS011;10365;52.578;8.138;2023-08-31T14:18:28;4.35;;;1.08;;
20411;SDS011;10365;52.578;8.138;2023-08-31T14:20:56;6.47;;;1.23;;
20411;SDS011;10365;52.578;8.138;2023-08-31T14:23:23;3.70;;;1.13;;
20411;SDS011;10365;52.578;8.138;2023-08-31T14:25:48;4.82;;;1.27;;
20411;SDS011;10365;52.578;8.138;2023-08-31T14:28:13;4.45;;;1.08;;
20411;SDS011;10365;52.578;8.138;2023-08-31T14:30:39;4.43;;;1.10;;
20411;SDS011;10365;52.578;8.138;2023-08-31T14:33:04;4.82;;;1.20;;
20411;SDS011;10365;52.578;8.138;2023-08-31T14:35:30;2.47;;;0.75;;
20411;SDS011;10365;52.578;8.138;2023-08-31T14:37:56;2.75;;;0.80;;
20411;SDS011;10365;52.578;8.138;2023-08-31T14:40:23;3.45;;;0.85;;
20411;SDS011;10365;52.578;8.138;2023-08-31T14:42:48;2.17;;;0.43;;
20411;SDS011;10365;52.578;8.138;2023-08-31T14:45:14;1.67;;;0.40;;
20411;SDS011;10365;52.578;8.138;2023-08-31T14:47:39;4.28;;;0.40;;